Guthrie Center, Iowa
Current Conditions -  °F | °C
As of 11:35 AM on Thursday 30 Oct 2014 (Local Time) from KPRO Reporting Station
Clear Clear  
Wind Chill: 54°   Ceiling: Unl
Heat Index: 54°   Visibility: 10mi
Dew Point: 37°   Wind: 3mph
Humidity: 52%   Direction: 310°NW
Pressure: 30.03"   Gusts: NA
Location:  41.68°N, 94.5°W
Report Text: KPRO 301635Z AUTO 31003KT 10SM CLR 12/03 A3003 RMK AO2 T01240028
Loading
Personal Weather Stations






























Interactive Weather Map
Tropical Storm Tracking
New forecast layout! Learn more

10-Day Weather Forecast

Advertisements
Track Severe Weather on mobile